sensor_id;sensor_type;location;lat;lon;timestamp;P1;durP1;ratioP1;P2;durP2;ratioP2
21941;SDS011;11135;54.192;15.670;2023-10-31T00:03:42;11.60;;;5.18;;
21941;SDS011;11135;54.192;15.670;2023-10-31T00:07:08;10.93;;;4.65;;
21941;SDS011;11135;54.192;15.670;2023-10-31T00:10:37;7.85;;;4.63;;
21941;SDS011;11135;54.192;15.670;2023-10-31T00:14:07;7.57;;;4.60;;
21941;SDS011;11135;54.192;15.670;2023-10-31T00:17:54;9.05;;;4.70;;
21941;SDS011;11135;54.192;15.670;2023-10-31T00:21:22;7.60;;;4.10;;
21941;SDS011;11135;54.192;15.670;2023-10-31T00:24:49;10.48;;;5.78;;
21941;SDS011;11135;54.192;15.670;2023-10-31T00:28:18;10.48;;;4.50;;
21941;SDS011;11135;54.192;15.670;2023-10-31T00:31:49;9.52;;;5.00;;
21941;SDS011;11135;54.192;15.670;2023-10-31T00:35:14;9.18;;;4.80;;
21941;SDS011;11135;54.192;15.670;2023-10-31T00:38:41;8.93;;;5.43;;
21941;SDS011;11135;54.192;15.670;2023-10-31T00:42:06;8.38;;;4.15;;
21941;SDS011;11135;54.192;15.670;2023-10-31T00:45:36;7.20;;;3.75;;
21941;SDS011;11135;54.192;15.670;2023-10-31T00:49:03;11.68;;;5.25;;
21941;SDS011;11135;54.192;15.670;2023-10-31T00:52:30;7.18;;;4.18;;
21941;SDS011;11135;54.192;15.670;2023-10-31T00:55:56;8.48;;;4.20;;
21941;SDS011;11135;54.192;15.670;2023-10-31T00:59:22;8.70;;;4.93;;
21941;SDS011;11135;54.192;15.670;2023-10-31T01:02:51;8.10;;;4.15;;
21941;SDS011;11135;54.192;15.670;2023-10-31T01:06:18;7.72;;;3.83;;
21941;SDS011;11135;54.192;15.670;2023-10-31T01:09:44;8.32;;;4.20;;
21941;SDS011;11135;54.192;15.670;2023-10-31T01:13:11;9.02;;;4.50;;
21941;SDS011;11135;54.192;15.670;2023-10-31T01:16:39;6.60;;;4.10;;
21941;SDS011;11135;54.192;15.670;2023-10-31T01:20:13;10.50;;;4.43;;
21941;SDS011;11135;54.192;15.670;2023-10-31T01:23:40;7.18;;;4.20;;
21941;SDS011;11135;54.192;15.670;2023-10-31T01:27:07;8.13;;;4.43;;
21941;SDS011;11135;54.192;15.670;2023-10-31T01:30:36;8.52;;;4.70;;
21941;SDS011;11135;54.192;15.670;2023-10-31T01:34:02;7.63;;;4.00;;
21941;SDS011;11135;54.192;15.670;2023-10-31T01:37:31;9.18;;;4.28;;
21941;SDS011;11135;54.192;15.670;2023-10-31T01:40:59;8.30;;;4.43;;
21941;SDS011;11135;54.192;15.670;2023-10-31T01:44:24;7.55;;;4.57;;
21941;SDS011;11135;54.192;15.670;2023-10-31T01:47:52;9.27;;;4.85;;
21941;SDS011;11135;54.192;15.670;2023-10-31T01:51:22;9.32;;;4.88;;
21941;SDS011;11135;54.192;15.670;2023-10-31T01:54:54;8.57;;;4.65;;
21941;SDS011;11135;54.192;15.670;2023-10-31T01:58:23;11.75;;;5.05;;
21941;SDS011;11135;54.192;15.670;2023-10-31T02:01:50;8.85;;;5.07;;
21941;SDS011;11135;54.192;15.670;2023-10-31T02:05:18;7.93;;;4.45;;
21941;SDS011;11135;54.192;15.670;2023-10-31T02:08:45;8.23;;;4.93;;
21941;SDS011;11135;54.192;15.670;2023-10-31T02:16:00;10.25;;;5.90;;
21941;SDS011;11135;54.192;15.670;2023-10-31T02:19:30;11.57;;;6.40;;
21941;SDS011;11135;54.192;15.670;2023-10-31T02:23:00;11.65;;;6.15;;
21941;SDS011;11135;54.192;15.670;2023-10-31T02:26:28;9.77;;;6.00;;
21941;SDS011;11135;54.192;15.670;2023-10-31T02:29:58;10.02;;;5.40;;
21941;SDS011;11135;54.192;15.670;2023-10-31T02:33:24;9.50;;;5.50;;
21941;SDS011;11135;54.192;15.670;2023-10-31T02:36:51;11.02;;;6.03;;
21941;SDS011;11135;54.192;15.670;2023-10-31T02:40:21;12.63;;;8.82;;
21941;SDS011;11135;54.192;15.670;2023-10-31T02:43:54;9.25;;;5.57;;
21941;SDS011;11135;54.192;15.670;2023-10-31T02:47:20;10.10;;;6.40;;
21941;SDS011;11135;54.192;15.670;2023-10-31T02:50:46;10.25;;;5.88;;
21941;SDS011;11135;54.192;15.670;2023-10-31T02:54:12;10.15;;;5.55;;
21941;SDS011;11135;54.192;15.670;2023-10-31T02:57:43;8.10;;;5.53;;
21941;SDS011;11135;54.192;15.670;2023-10-31T03:01:12;10.55;;;6.00;;
21941;SDS011;11135;54.192;15.670;2023-10-31T03:04:42;9.95;;;6.03;;
21941;SDS011;11135;54.192;15.670;2023-10-31T03:08:12;11.23;;;5.68;;
21941;SDS011;11135;54.192;15.670;2023-10-31T03:11:43;10.02;;;6.45;;
21941;SDS011;11135;54.192;15.670;2023-10-31T03:15:12;13.52;;;5.85;;
21941;SDS011;11135;54.192;15.670;2023-10-31T03:18:43;9.13;;;6.00;;
21941;SDS011;11135;54.192;15.670;2023-10-31T03:22:08;11.23;;;7.43;;
21941;SDS011;11135;54.192;15.670;2023-10-31T03:25:38;13.30;;;8.00;;
21941;SDS011;11135;54.192;15.670;2023-10-31T03:29:03;11.88;;;7.75;;
21941;SDS011;11135;54.192;15.670;2023-10-31T03:32:34;12.38;;;7.15;;
21941;SDS011;11135;54.192;15.670;2023-10-31T03:36:00;12.88;;;7.57;;
21941;SDS011;11135;54.192;15.670;2023-10-31T03:39:27;13.57;;;7.82;;
21941;SDS011;11135;54.192;15.670;2023-10-31T03:42:53;11.15;;;7.40;;
21941;SDS011;11135;54.192;15.670;2023-10-31T03:46:20;11.05;;;7.47;;
21941;SDS011;11135;54.192;15.670;2023-10-31T03:49:49;11.07;;;6.47;;
21941;SDS011;11135;54.192;15.670;2023-10-31T03:53:16;9.85;;;7.28;;
21941;SDS011;11135;54.192;15.670;2023-10-31T03:56:42;10.18;;;6.65;;
21941;SDS011;11135;54.192;15.670;2023-10-31T04:00:08;10.15;;;6.07;;
21941;SDS011;11135;54.192;15.670;2023-10-31T04:03:37;11.73;;;7.07;;
21941;SDS011;11135;54.192;15.670;2023-10-31T04:07:06;13.07;;;7.25;;
21941;SDS011;11135;54.192;15.670;2023-10-31T04:10:32;11.65;;;7.35;;
21941;SDS011;11135;54.192;15.670;2023-10-31T04:13:59;12.98;;;8.63;;
21941;SDS011;11135;54.192;15.670;2023-10-31T04:17:26;13.20;;;9.23;;
21941;SDS011;11135;54.192;15.670;2023-10-31T04:20:55;14.60;;;8.88;;
21941;SDS011;11135;54.192;15.670;2023-10-31T04:24:25;24.88;;;11.00;;
21941;SDS011;11135;54.192;15.670;2023-10-31T04:27:53;15.30;;;10.07;;
21941;SDS011;11135;54.192;15.670;2023-10-31T04:31:20;13.48;;;9.35;;
21941;SDS011;11135;54.192;15.670;2023-10-31T04:35:03;16.38;;;10.45;;
21941;SDS011;11135;54.192;15.670;2023-10-31T04:38:29;16.13;;;10.30;;
21941;SDS011;11135;54.192;15.670;2023-10-31T04:42:00;14.40;;;10.10;;
21941;SDS011;11135;54.192;15.670;2023-10-31T04:45:26;16.30;;;11.48;;
21941;SDS011;11135;54.192;15.670;2023-10-31T04:48:52;19.98;;;11.40;;
21941;SDS011;11135;54.192;15.670;2023-10-31T04:52:18;18.45;;;12.63;;
21941;SDS011;11135;54.192;15.670;2023-10-31T04:55:45;19.33;;;11.85;;
21941;SDS011;11135;54.192;15.670;2023-10-31T04:59:18;17.52;;;11.63;;
21941;SDS011;11135;54.192;15.670;2023-10-31T05:06:11;16.40;;;12.32;;
21941;SDS011;11135;54.192;15.670;2023-10-31T05:09:38;24.77;;;12.65;;
21941;SDS011;11135;54.192;15.670;2023-10-31T05:13:08;20.35;;;12.38;;
21941;SDS011;11135;54.192;15.670;2023-10-31T05:16:41;20.48;;;12.35;;
21941;SDS011;11135;54.192;15.670;2023-10-31T05:23:32;21.77;;;13.38;;
21941;SDS011;11135;54.192;15.670;2023-10-31T05:26:57;21.83;;;14.18;;
21941;SDS011;11135;54.192;15.670;2023-10-31T05:30:23;20.10;;;13.60;;
21941;SDS011;11135;54.192;15.670;2023-10-31T05:33:52;21.25;;;13.70;;
21941;SDS011;11135;54.192;15.670;2023-10-31T05:37:19;22.20;;;14.30;;
21941;SDS011;11135;54.192;15.670;2023-10-31T05:40:45;27.48;;;16.67;;
21941;SDS011;11135;54.192;15.670;2023-10-31T05:44:11;23.80;;;15.35;;
21941;SDS011;11135;54.192;15.670;2023-10-31T05:47:37;27.40;;;18.48;;
21941;SDS011;11135;54.192;15.670;2023-10-31T05:51:10;31.08;;;17.13;;
21941;SDS011;11135;54.192;15.670;2023-10-31T05:54:37;24.20;;;15.63;;
21941;SDS011;11135;54.192;15.670;2023-10-31T05:58:04;22.48;;;16.52;;
21941;SDS011;11135;54.192;15.670;2023-10-31T06:01:30;25.48;;;17.50;;
21941;SDS011;11135;54.192;15.670;2023-10-31T06:04:56;24.42;;;15.70;;
21941;SDS011;11135;54.192;15.670;2023-10-31T06:08:30;26.17;;;17.63;;
21941;SDS011;11135;54.192;15.670;2023-10-31T06:11:57;32.15;;;16.45;;
21941;SDS011;11135;54.192;15.670;2023-10-31T06:15:24;28.35;;;18.15;;
21941;SDS011;11135;54.192;15.670;2023-10-31T06:18:54;25.90;;;16.77;;
21941;SDS011;11135;54.192;15.670;2023-10-31T06:22:20;28.67;;;16.52;;
21941;SDS011;11135;54.192;15.670;2023-10-31T06:25:49;28.55;;;17.02;;
21941;SDS011;11135;54.192;15.670;2023-10-31T06:29:15;25.08;;;17.63;;
21941;SDS011;11135;54.192;15.670;2023-10-31T06:33:03;26.23;;;17.25;;
21941;SDS011;11135;54.192;15.670;2023-10-31T06:36:31;26.17;;;18.33;;
21941;SDS011;11135;54.192;15.670;2023-10-31T06:39:58;26.95;;;16.27;;
21941;SDS011;11135;54.192;15.670;2023-10-31T06:43:29;19.42;;;12.07;;
21941;SDS011;11135;54.192;15.670;2023-10-31T06:46:56;22.88;;;15.02;;
21941;SDS011;11135;54.192;15.670;2023-10-31T06:50:22;24.15;;;15.23;;
21941;SDS011;11135;54.192;15.670;2023-10-31T06:53:51;24.05;;;16.88;;
21941;SDS011;11135;54.192;15.670;2023-10-31T06:57:17;26.42;;;17.17;;
21941;SDS011;11135;54.192;15.670;2023-10-31T07:00:47;24.70;;;16.40;;
21941;SDS011;11135;54.192;15.670;2023-10-31T07:04:14;26.58;;;16.38;;
21941;SDS011;11135;54.192;15.670;2023-10-31T07:07:41;30.65;;;16.52;;
21941;SDS011;11135;54.192;15.670;2023-10-31T07:11:06;25.30;;;15.85;;
21941;SDS011;11135;54.192;15.670;2023-10-31T07:14:33;30.42;;;18.85;;
21941;SDS011;11135;54.192;15.670;2023-10-31T07:18:02;25.15;;;17.48;;
21941;SDS011;11135;54.192;15.670;2023-10-31T07:21:28;23.23;;;15.80;;
21941;SDS011;11135;54.192;15.670;2023-10-31T07:24:54;22.45;;;14.65;;
21941;SDS011;11135;54.192;15.670;2023-10-31T07:28:20;27.55;;;17.73;;
21941;SDS011;11135;54.192;15.670;2023-10-31T07:31:46;25.38;;;16.02;;
21941;SDS011;11135;54.192;15.670;2023-10-31T07:35:15;21.40;;;15.15;;
21941;SDS011;11135;54.192;15.670;2023-10-31T07:38:42;22.00;;;14.75;;
21941;SDS011;11135;54.192;15.670;2023-10-31T07:42:08;22.38;;;14.93;;
21941;SDS011;11135;54.192;15.670;2023-10-31T07:45:36;21.30;;;14.98;;
21941;SDS011;11135;54.192;15.670;2023-10-31T07:49:02;22.65;;;15.18;;
21941;SDS011;11135;54.192;15.670;2023-10-31T07:52:30;23.77;;;13.75;;
21941;SDS011;11135;54.192;15.670;2023-10-31T07:55:57;23.00;;;15.35;;
21941;SDS011;11135;54.192;15.670;2023-10-31T07:59:22;20.98;;;14.48;;
21941;SDS011;11135;54.192;15.670;2023-10-31T08:02:48;18.65;;;13.82;;
21941;SDS011;11135;54.192;15.670;2023-10-31T08:06:16;20.75;;;13.05;;
21941;SDS011;11135;54.192;15.670;2023-10-31T08:09:45;19.83;;;13.07;;
21941;SDS011;11135;54.192;15.670;2023-10-31T08:13:11;21.65;;;13.23;;
21941;SDS011;11135;54.192;15.670;2023-10-31T08:16:37;16.77;;;13.30;;
21941;SDS011;11135;54.192;15.670;2023-10-31T08:20:06;22.88;;;13.25;;
21941;SDS011;11135;54.192;15.670;2023-10-31T08:23:33;16.77;;;12.60;;
21941;SDS011;11135;54.192;15.670;2023-10-31T08:27:01;19.58;;;12.35;;
21941;SDS011;11135;54.192;15.670;2023-10-31T08:30:29;17.48;;;11.50;;
21941;SDS011;11135;54.192;15.670;2023-10-31T08:33:57;20.50;;;13.15;;
21941;SDS011;11135;54.192;15.670;2023-10-31T08:37:24;17.35;;;12.00;;
21941;SDS011;11135;54.192;15.670;2023-10-31T08:40:50;18.95;;;13.00;;
21941;SDS011;11135;54.192;15.670;2023-10-31T08:44:21;15.68;;;10.63;;
21941;SDS011;11135;54.192;15.670;2023-10-31T08:47:48;16.00;;;11.18;;
21941;SDS011;11135;54.192;15.670;2023-10-31T08:51:14;14.27;;;10.65;;
21941;SDS011;11135;54.192;15.670;2023-10-31T08:54:40;13.90;;;8.80;;
21941;SDS011;11135;54.192;15.670;2023-10-31T08:58:06;15.93;;;9.57;;
21941;SDS011;11135;54.192;15.670;2023-10-31T09:01:34;12.98;;;8.63;;
21941;SDS011;11135;54.192;15.670;2023-10-31T09:05:00;11.48;;;7.65;;
21941;SDS011;11135;54.192;15.670;2023-10-31T09:08:27;14.10;;;9.75;;
21941;SDS011;11135;54.192;15.670;2023-10-31T09:11:53;11.73;;;8.38;;
21941;SDS011;11135;54.192;15.670;2023-10-31T09:15:22;10.15;;;7.75;;
21941;SDS011;11135;54.192;15.670;2023-10-31T09:18:51;12.52;;;8.38;;
21941;SDS011;11135;54.192;15.670;2023-10-31T09:22:17;10.77;;;8.10;;
21941;SDS011;11135;54.192;15.670;2023-10-31T09:25:43;10.77;;;7.45;;
21941;SDS011;11135;54.192;15.670;2023-10-31T09:29:11;9.48;;;6.78;;
21941;SDS011;11135;54.192;15.670;2023-10-31T09:32:51;9.30;;;6.97;;
21941;SDS011;11135;54.192;15.670;2023-10-31T09:36:20;9.73;;;7.28;;
21941;SDS011;11135;54.192;15.670;2023-10-31T09:39:46;9.60;;;6.72;;
21941;SDS011;11135;54.192;15.670;2023-10-31T09:43:13;10.48;;;6.85;;
21941;SDS011;11135;54.192;15.670;2023-10-31T09:46:40;9.75;;;7.25;;
21941;SDS011;11135;54.192;15.670;2023-10-31T09:50:08;9.63;;;7.28;;
21941;SDS011;11135;54.192;15.670;2023-10-31T09:53:38;11.18;;;8.10;;
21941;SDS011;11135;54.192;15.670;2023-10-31T09:57:04;11.75;;;8.40;;
21941;SDS011;11135;54.192;15.670;2023-10-31T10:00:32;12.02;;;7.85;;
21941;SDS011;11135;54.192;15.670;2023-10-31T10:03:59;11.73;;;8.50;;
21941;SDS011;11135;54.192;15.670;2023-10-31T10:07:27;11.85;;;7.97;;
21941;SDS011;11135;54.192;15.670;2023-10-31T10:10:55;12.32;;;8.73;;
21941;SDS011;11135;54.192;15.670;2023-10-31T10:14:22;11.82;;;9.43;;
21941;SDS011;11135;54.192;15.670;2023-10-31T10:17:49;13.57;;;8.88;;
21941;SDS011;11135;54.192;15.670;2023-10-31T10:21:17;12.30;;;8.57;;
21941;SDS011;11135;54.192;15.670;2023-10-31T10:24:43;14.68;;;10.60;;
21941;SDS011;11135;54.192;15.670;2023-10-31T10:28:12;16.92;;;11.55;;
21941;SDS011;11135;54.192;15.670;2023-10-31T10:31:38;16.52;;;10.18;;
21941;SDS011;11135;54.192;15.670;2023-10-31T10:35:06;19.80;;;11.60;;
21941;SDS011;11135;54.192;15.670;2023-10-31T10:38:34;20.33;;;12.40;;
21941;SDS011;11135;54.192;15.670;2023-10-31T10:42:05;16.55;;;11.10;;
21941;SDS011;11135;54.192;15.670;2023-10-31T10:45:35;17.90;;;11.57;;
21941;SDS011;11135;54.192;15.670;2023-10-31T10:49:03;17.35;;;10.30;;
21941;SDS011;11135;54.192;15.670;2023-10-31T10:52:30;16.17;;;10.35;;
21941;SDS011;11135;54.192;15.670;2023-10-31T10:56:03;14.05;;;9.48;;
21941;SDS011;11135;54.192;15.670;2023-10-31T10:59:38;12.95;;;9.15;;
21941;SDS011;11135;54.192;15.670;2023-10-31T11:03:08;16.38;;;10.93;;
21941;SDS011;11135;54.192;15.670;2023-10-31T11:06:34;13.85;;;9.15;;
21941;SDS011;11135;54.192;15.670;2023-10-31T11:10:03;17.20;;;10.25;;
21941;SDS011;11135;54.192;15.670;2023-10-31T11:13:29;12.35;;;7.68;;
21941;SDS011;11135;54.192;15.670;2023-10-31T11:16:55;12.25;;;8.80;;
21941;SDS011;11135;54.192;15.670;2023-10-31T11:20:25;12.30;;;7.93;;
21941;SDS011;11135;54.192;15.670;2023-10-31T11:23:56;10.07;;;6.88;;
21941;SDS011;11135;54.192;15.670;2023-10-31T11:27:22;13.30;;;8.00;;
21941;SDS011;11135;54.192;15.670;2023-10-31T11:30:49;11.68;;;7.80;;
21941;SDS011;11135;54.192;15.670;2023-10-31T11:34:20;12.43;;;7.95;;
21941;SDS011;11135;54.192;15.670;2023-10-31T11:37:50;9.27;;;6.50;;
21941;SDS011;11135;54.192;15.670;2023-10-31T11:41:27;13.00;;;8.88;;
21941;SDS011;11135;54.192;15.670;2023-10-31T11:44:54;13.32;;;8.75;;
21941;SDS011;11135;54.192;15.670;2023-10-31T11:48:20;10.65;;;7.10;;
21941;SDS011;11135;54.192;15.670;2023-10-31T11:52:13;11.82;;;6.80;;
21941;SDS011;11135;54.192;15.670;2023-10-31T11:55:46;9.35;;;6.32;;
21941;SDS011;11135;54.192;15.670;2023-10-31T11:59:13;11.77;;;6.65;;
21941;SDS011;11135;54.192;15.670;2023-10-31T12:02:42;10.35;;;6.40;;
21941;SDS011;11135;54.192;15.670;2023-10-31T12:06:09;8.90;;;6.35;;
21941;SDS011;11135;54.192;15.670;2023-10-31T12:09:45;9.63;;;6.20;;
21941;SDS011;11135;54.192;15.670;2023-10-31T12:13:15;6.85;;;4.82;;
21941;SDS011;11135;54.192;15.670;2023-10-31T12:16:41;7.20;;;5.38;;
21941;SDS011;11135;54.192;15.670;2023-10-31T12:20:08;5.15;;;3.70;;
21941;SDS011;11135;54.192;15.670;2023-10-31T12:23:34;7.13;;;4.35;;
21941;SDS011;11135;54.192;15.670;2023-10-31T12:27:00;6.47;;;4.45;;
21941;SDS011;11135;54.192;15.670;2023-10-31T12:30:29;6.28;;;4.15;;
21941;SDS011;11135;54.192;15.670;2023-10-31T12:33:56;4.75;;;3.40;;
21941;SDS011;11135;54.192;15.670;2023-10-31T12:37:26;6.50;;;3.00;;
21941;SDS011;11135;54.192;15.670;2023-10-31T12:40:53;4.90;;;3.38;;
21941;SDS011;11135;54.192;15.670;2023-10-31T12:44:22;3.42;;;2.47;;
21941;SDS011;11135;54.192;15.670;2023-10-31T12:48:03;4.77;;;3.07;;
21941;SDS011;11135;54.192;15.670;2023-10-31T12:51:29;5.07;;;3.45;;
21941;SDS011;11135;54.192;15.670;2023-10-31T12:54:55;4.72;;;3.10;;
21941;SDS011;11135;54.192;15.670;2023-10-31T12:58:21;4.90;;;3.50;;
21941;SDS011;11135;54.192;15.670;2023-10-31T13:01:48;6.40;;;4.78;;
21941;SDS011;11135;54.192;15.670;2023-10-31T13:05:17;8.43;;;6.03;;
21941;SDS011;11135;54.192;15.670;2023-10-31T13:08:45;7.43;;;5.13;;
21941;SDS011;11135;54.192;15.670;2023-10-31T13:12:11;5.50;;;4.25;;
21941;SDS011;11135;54.192;15.670;2023-10-31T13:15:38;4.95;;;3.40;;
21941;SDS011;11135;54.192;15.670;2023-10-31T13:19:06;5.60;;;3.92;;
21941;SDS011;11135;54.192;15.670;2023-10-31T13:22:36;6.15;;;3.78;;
21941;SDS011;11135;54.192;15.670;2023-10-31T13:26:03;3.95;;;2.88;;
21941;SDS011;11135;54.192;15.670;2023-10-31T13:29:31;5.07;;;3.40;;
21941;SDS011;11135;54.192;15.670;2023-10-31T13:32:57;3.80;;;2.65;;
21941;SDS011;11135;54.192;15.670;2023-10-31T13:36:23;3.72;;;2.03;;
21941;SDS011;11135;54.192;15.670;2023-10-31T13:39:52;3.45;;;2.47;;
21941;SDS011;11135;54.192;15.670;2023-10-31T13:43:21;4.97;;;1.95;;
21941;SDS011;11135;54.192;15.670;2023-10-31T13:46:48;4.35;;;1.95;;
21941;SDS011;11135;54.192;15.670;2023-10-31T13:50:14;4.05;;;2.10;;
21941;SDS011;11135;54.192;15.670;2023-10-31T13:53:40;2.45;;;1.45;;
21941;SDS011;11135;54.192;15.670;2023-10-31T13:57:12;3.28;;;1.40;;
21941;SDS011;11135;54.192;15.670;2023-10-31T14:00:43;1.88;;;1.42;;
21941;SDS011;11135;54.192;15.670;2023-10-31T14:04:09;1.50;;;1.00;;
21941;SDS011;11135;54.192;15.670;2023-10-31T14:07:36;1.05;;;0.90;;
21941;SDS011;11135;54.192;15.670;2023-10-31T14:11:05;0.90;;;0.60;;
21941;SDS011;11135;54.192;15.670;2023-10-31T14:14:33;2.53;;;0.90;;
21941;SDS011;11135;54.192;15.670;2023-10-31T14:17:59;1.50;;;0.70;;
21941;SDS011;11135;54.192;15.670;2023-10-31T14:21:26;2.28;;;1.00;;
21941;SDS011;11135;54.192;15.670;2023-10-31T14:24:52;0.82;;;0.60;;
21941;SDS011;11135;54.192;15.670;2023-10-31T14:28:20;1.00;;;0.80;;
21941;SDS011;11135;54.192;15.670;2023-10-31T14:31:49;1.55;;;0.60;;
21941;SDS011;11135;54.192;15.670;2023-10-31T14:35:16;1.10;;;0.60;;
21941;SDS011;11135;54.192;15.670;2023-10-31T14:38:45;1.38;;;0.70;;
21941;SDS011;11135;54.192;15.670;2023-10-31T14:42:10;1.75;;;0.73;;
21941;SDS011;11135;54.192;15.670;2023-10-31T14:45:37;1.10;;;0.70;;
21941;SDS011;11135;54.192;15.670;2023-10-31T14:49:08;1.35;;;0.80;;
21941;SDS011;11135;54.192;15.670;2023-10-31T14:52:34;4.75;;;1.20;;
21941;SDS011;11135;54.192;15.670;2023-10-31T14:56:02;3.40;;;1.55;;
21941;SDS011;11135;54.192;15.670;2023-10-31T14:59:30;2.30;;;1.45;;
21941;SDS011;11135;54.192;15.670;2023-10-31T15:02:56;2.53;;;1.58;;
21941;SDS011;11135;54.192;15.670;2023-10-31T15:06:26;3.83;;;1.50;;
21941;SDS011;11135;54.192;15.670;2023-10-31T15:09:56;3.40;;;1.83;;
21941;SDS011;11135;54.192;15.670;2023-10-31T15:13:24;2.85;;;2.05;;
21941;SDS011;11135;54.192;15.670;2023-10-31T15:16:52;2.00;;;1.20;;
21941;SDS011;11135;54.192;15.670;2023-10-31T15:20:18;2.55;;;1.33;;
21941;SDS011;11135;54.192;15.670;2023-10-31T15:23:47;2.78;;;1.35;;
21941;SDS011;11135;54.192;15.670;2023-10-31T15:27:18;1.92;;;1.00;;
21941;SDS011;11135;54.192;15.670;2023-10-31T15:30:47;1.45;;;1.10;;
21941;SDS011;11135;54.192;15.670;2023-10-31T15:34:13;4.40;;;1.40;;
21941;SDS011;11135;54.192;15.670;2023-10-31T15:37:39;4.05;;;1.50;;
21941;SDS011;11135;54.192;15.670;2023-10-31T15:41:11;2.75;;;1.50;;
21941;SDS011;11135;54.192;15.670;2023-10-31T15:44:41;2.70;;;1.50;;
21941;SDS011;11135;54.192;15.670;2023-10-31T15:48:07;1.80;;;1.50;;
21941;SDS011;11135;54.192;15.670;2023-10-31T15:51:40;2.78;;;1.77;;
21941;SDS011;11135;54.192;15.670;2023-10-31T15:55:06;2.92;;;2.63;;
21941;SDS011;11135;54.192;15.670;2023-10-31T15:58:37;2.50;;;1.60;;
21941;SDS011;11135;54.192;15.670;2023-10-31T16:02:06;4.70;;;1.85;;
21941;SDS011;11135;54.192;15.670;2023-10-31T16:05:32;2.05;;;1.48;;
21941;SDS011;11135;54.192;15.670;2023-10-31T16:08:58;3.03;;;1.80;;
21941;SDS011;11135;54.192;15.670;2023-10-31T16:12:32;3.40;;;1.92;;
21941;SDS011;11135;54.192;15.670;2023-10-31T16:16:01;4.18;;;1.85;;
21941;SDS011;11135;54.192;15.670;2023-10-31T16:19:28;3.38;;;1.92;;
21941;SDS011;11135;54.192;15.670;2023-10-31T16:22:54;4.30;;;2.38;;
21941;SDS011;11135;54.192;15.670;2023-10-31T16:26:21;3.88;;;2.30;;
21941;SDS011;11135;54.192;15.670;2023-10-31T16:29:48;3.63;;;2.60;;
21941;SDS011;11135;54.192;15.670;2023-10-31T16:33:16;5.22;;;2.40;;
21941;SDS011;11135;54.192;15.670;2023-10-31T16:36:43;4.72;;;2.65;;
21941;SDS011;11135;54.192;15.670;2023-10-31T16:40:11;3.72;;;2.20;;
21941;SDS011;11135;54.192;15.670;2023-10-31T16:43:37;4.00;;;2.10;;
21941;SDS011;11135;54.192;15.670;2023-10-31T16:47:04;4.32;;;2.28;;
21941;SDS011;11135;54.192;15.670;2023-10-31T16:50:33;3.35;;;1.33;;
21941;SDS011;11135;54.192;15.670;2023-10-31T16:53:58;2.63;;;1.48;;
21941;SDS011;11135;54.192;15.670;2023-10-31T16:57:28;4.28;;;1.70;;
21941;SDS011;11135;54.192;15.670;2023-10-31T17:01:12;4.63;;;1.60;;
21941;SDS011;11135;54.192;15.670;2023-10-31T17:04:40;1.70;;;0.85;;
21941;SDS011;11135;54.192;15.670;2023-10-31T17:08:08;1.27;;;0.57;;
21941;SDS011;11135;54.192;15.670;2023-10-31T17:11:34;4.10;;;0.90;;
21941;SDS011;11135;54.192;15.670;2023-10-31T17:15:00;4.65;;;0.68;;
21941;SDS011;11135;54.192;15.670;2023-10-31T17:18:30;1.80;;;0.70;;
21941;SDS011;11135;54.192;15.670;2023-10-31T17:21:56;1.55;;;0.75;;
21941;SDS011;11135;54.192;15.670;2023-10-31T17:25:24;2.75;;;0.60;;
21941;SDS011;11135;54.192;15.670;2023-10-31T17:28:50;1.60;;;0.70;;
21941;SDS011;11135;54.192;15.670;2023-10-31T17:32:19;2.53;;;0.68;;
21941;SDS011;11135;54.192;15.670;2023-10-31T17:35:45;3.45;;;0.60;;
21941;SDS011;11135;54.192;15.670;2023-10-31T17:39:12;3.03;;;0.65;;
21941;SDS011;11135;54.192;15.670;2023-10-31T17:42:42;4.82;;;0.60;;
21941;SDS011;11135;54.192;15.670;2023-10-31T17:46:08;3.20;;;0.50;;
21941;SDS011;11135;54.192;15.670;2023-10-31T17:49:34;2.10;;;1.08;;
21941;SDS011;11135;54.192;15.670;2023-10-31T17:53:00;1.80;;;0.55;;
21941;SDS011;11135;54.192;15.670;2023-10-31T17:56:26;1.55;;;0.47;;
21941;SDS011;11135;54.192;15.670;2023-10-31T17:59:56;1.95;;;0.50;;
21941;SDS011;11135;54.192;15.670;2023-10-31T18:03:23;2.28;;;0.52;;
21941;SDS011;11135;54.192;15.670;2023-10-31T18:06:51;2.10;;;0.73;;
21941;SDS011;11135;54.192;15.670;2023-10-31T18:10:19;4.60;;;0.70;;
21941;SDS011;11135;54.192;15.670;2023-10-31T18:13:45;4.57;;;0.85;;
21941;SDS011;11135;54.192;15.670;2023-10-31T18:17:14;3.30;;;0.65;;
21941;SDS011;11135;54.192;15.670;2023-10-31T18:20:40;1.67;;;0.60;;
21941;SDS011;11135;54.192;15.670;2023-10-31T18:24:07;3.70;;;0.57;;
21941;SDS011;11135;54.192;15.670;2023-10-31T18:27:33;1.65;;;0.50;;
21941;SDS011;11135;54.192;15.670;2023-10-31T18:30:58;3.63;;;0.85;;
21941;SDS011;11135;54.192;15.670;2023-10-31T18:34:28;4.72;;;0.80;;
21941;SDS011;11135;54.192;15.670;2023-10-31T18:37:54;1.23;;;0.55;;
21941;SDS011;11135;54.192;15.670;2023-10-31T18:41:21;2.10;;;0.40;;
21941;SDS011;11135;54.192;15.670;2023-10-31T18:44:46;2.42;;;0.75;;
21941;SDS011;11135;54.192;15.670;2023-10-31T18:48:19;1.33;;;0.50;;
21941;SDS011;11135;54.192;15.670;2023-10-31T18:51:48;4.80;;;0.90;;
21941;SDS011;11135;54.192;15.670;2023-10-31T18:55:16;0.93;;;0.50;;
21941;SDS011;11135;54.192;15.670;2023-10-31T18:58:42;5.20;;;0.70;;
21941;SDS011;11135;54.192;15.670;2023-10-31T19:02:23;3.90;;;0.80;;
21941;SDS011;11135;54.192;15.670;2023-10-31T19:05:49;2.97;;;0.70;;
21941;SDS011;11135;54.192;15.670;2023-10-31T19:09:19;5.47;;;1.10;;
21941;SDS011;11135;54.192;15.670;2023-10-31T19:12:47;2.92;;;0.55;;
21941;SDS011;11135;54.192;15.670;2023-10-31T19:16:18;2.28;;;0.80;;
21941;SDS011;11135;54.192;15.670;2023-10-31T19:19:44;2.53;;;0.68;;
21941;SDS011;11135;54.192;15.670;2023-10-31T19:23:11;1.20;;;0.40;;
21941;SDS011;11135;54.192;15.670;2023-10-31T19:26:43;2.67;;;0.65;;
21941;SDS011;11135;54.192;15.670;2023-10-31T19:30:10;3.03;;;0.45;;
21941;SDS011;11135;54.192;15.670;2023-10-31T19:33:37;3.35;;;0.50;;
21941;SDS011;11135;54.192;15.670;2023-10-31T19:37:03;3.33;;;0.52;;
21941;SDS011;11135;54.192;15.670;2023-10-31T19:40:29;5.18;;;0.70;;
21941;SDS011;11135;54.192;15.670;2023-10-31T19:44:02;2.17;;;0.85;;
21941;SDS011;11135;54.192;15.670;2023-10-31T19:47:28;2.22;;;1.05;;
21941;SDS011;11135;54.192;15.670;2023-10-31T19:50:54;1.95;;;0.60;;
21941;SDS011;11135;54.192;15.670;2023-10-31T19:54:21;2.90;;;0.73;;
21941;SDS011;11135;54.192;15.670;2023-10-31T19:57:48;3.15;;;1.05;;
21941;SDS011;11135;54.192;15.670;2023-10-31T20:01:16;3.95;;;0.65;;
21941;SDS011;11135;54.192;15.670;2023-10-31T20:04:43;2.40;;;0.73;;
21941;SDS011;11135;54.192;15.670;2023-10-31T20:08:09;2.60;;;0.65;;
21941;SDS011;11135;54.192;15.670;2023-10-31T20:11:36;2.15;;;0.90;;
21941;SDS011;11135;54.192;15.670;2023-10-31T20:15:04;2.88;;;0.93;;
21941;SDS011;11135;54.192;15.670;2023-10-31T20:18:35;2.15;;;0.70;;
21941;SDS011;11135;54.192;15.670;2023-10-31T20:22:01;3.63;;;0.60;;
21941;SDS011;11135;54.192;15.670;2023-10-31T20:25:27;1.50;;;0.70;;
21941;SDS011;11135;54.192;15.670;2023-10-31T20:28:55;3.45;;;0.85;;
21941;SDS011;11135;54.192;15.670;2023-10-31T20:32:25;0.75;;;0.30;;
21941;SDS011;11135;54.192;15.670;2023-10-31T20:35:55;1.30;;;0.57;;